createdAt,value
2023-03-02T17:34:14.292Z,27.80
2023-03-02T17:36:41.560Z,22.58
2023-03-02T17:39:08.081Z,26.38
2023-03-02T17:41:35.731Z,26.10
2023-03-02T17:44:03.107Z,25.90
2023-03-02T17:46:32.345Z,26.85
2023-03-02T17:49:00.787Z,25.88
2023-03-02T17:51:28.919Z,26.25
2023-03-02T17:53:56.011Z,26.70
2023-03-02T17:56:25.425Z,27.15
2023-03-02T17:59:01.047Z,22.40
2023-03-02T18:01:29.356Z,27.05
2023-03-02T18:03:56.003Z,26.77
2023-03-02T18:06:22.928Z,26.90
2023-03-02T18:08:51.251Z,26.45
2023-03-02T18:11:21.012Z,27.83
2023-03-02T18:13:47.661Z,25.08
2023-03-02T18:16:14.531Z,26.75
2023-03-02T18:18:41.131Z,27.27
2023-03-02T18:21:07.728Z,26.90
2023-03-02T18:23:34.519Z,25.92
2023-03-02T18:26:01.118Z,26.10
2023-03-02T18:28:29.097Z,27.35
2023-03-02T18:30:55.723Z,26.40
2023-03-02T18:33:22.296Z,26.33
2023-03-02T18:35:48.850Z,25.92
2023-03-02T18:38:15.357Z,26.23
2023-03-02T18:40:41.900Z,27.13
2023-03-02T18:43:08.516Z,26.63
2023-03-02T18:45:35.383Z,25.75
2023-03-02T18:48:02.342Z,28.80
2023-03-02T18:50:29.815Z,27.92
2023-03-02T18:52:56.396Z,26.45
2023-03-02T18:55:24.636Z,26.75
2023-03-02T18:57:53.808Z,27.58
2023-03-02T19:00:26.621Z,26.67
2023-03-02T19:02:54.228Z,26.73
2023-03-02T19:05:20.889Z,21.45
2023-03-02T19:07:47.846Z,25.90
2023-03-02T19:10:14.941Z,26.30
2023-03-02T19:12:41.870Z,27.15
2023-03-02T19:15:10.493Z,27.63
2023-03-02T19:17:39.675Z,28.17
2023-03-02T19:20:07.601Z,29.65
2023-03-02T19:22:34.620Z,28.10
2023-03-02T19:25:01.131Z,27.70
2023-03-02T19:27:27.844Z,27.40
2023-03-02T19:29:54.579Z,27.40
2023-03-02T19:32:21.196Z,27.45
2023-03-02T19:34:48.676Z,28.05
2023-03-02T19:37:15.654Z,28.85
2023-03-02T19:39:43.337Z,26.92
2023-03-02T19:42:10.240Z,26.63
2023-03-02T19:44:37.155Z,28.58
2023-03-02T19:47:04.509Z,27.95
2023-03-02T19:49:31.039Z,27.85
2023-03-02T19:51:58.998Z,28.67
2023-03-02T19:54:25.803Z,28.02
2023-03-02T19:56:54.870Z,29.23
2023-03-02T19:59:22.923Z,27.48
2023-03-02T20:01:51.266Z,28.30
2023-03-02T20:04:18.816Z,29.80
2023-03-02T20:06:45.445Z,28.83
2023-03-02T20:09:14.490Z,29.02
2023-03-02T20:11:41.065Z,29.15
2023-03-02T20:14:07.634Z,29.45
2023-03-02T20:16:35.615Z,29.33
2023-03-02T20:19:03.353Z,28.65
2023-03-02T20:21:31.222Z,30.98
2023-03-02T20:23:57.753Z,28.23
2023-03-02T20:26:25.696Z,28.23
2023-03-02T20:28:55.466Z,30.20
2023-03-02T20:31:24.547Z,28.67
2023-03-02T20:33:53.995Z,28.23
2023-03-02T20:36:29.521Z,29.10
2023-03-02T20:39:00.292Z,29.55
2023-03-02T20:41:27.173Z,28.33
2023-03-02T20:43:53.777Z,28.30
2023-03-02T20:46:24.785Z,27.70
2023-03-02T20:48:52.116Z,28.08
2023-03-02T20:51:19.714Z,28.23
2023-03-02T20:53:47.043Z,28.17
2023-03-02T20:56:18.634Z,30.35
2023-03-02T20:58:47.061Z,28.98
2023-03-02T21:01:15.749Z,28.55
2023-03-02T21:03:42.492Z,29.63
2023-03-02T21:06:09.932Z,30.42
2023-03-02T21:08:39.609Z,29.30
2023-03-02T21:11:15.629Z,28.92
2023-03-02T21:13:45.787Z,28.67
2023-03-02T21:16:20.572Z,30.80
2023-03-02T21:18:47.383Z,31.40
2023-03-02T21:21:13.891Z,28.75
2023-03-02T21:23:41.705Z,30.60
2023-03-02T21:26:10.582Z,30.38
2023-03-02T21:28:37.408Z,30.33
2023-03-02T21:31:04.103Z,30.50
2023-03-02T21:33:30.690Z,31.77
2023-03-02T21:35:57.913Z,33.20
2023-03-02T21:38:24.497Z,32.80
2023-03-02T21:40:50.958Z,31.42
2023-03-02T21:43:18.276Z,29.35
2023-03-02T21:45:44.737Z,29.40
2023-03-02T21:48:13.850Z,29.60
2023-03-02T21:50:40.928Z,28.08
2023-03-02T21:53:08.490Z,29.13
2023-03-02T21:55:35.455Z,29.70
2023-03-02T21:58:02.438Z,30.65
2023-03-02T22:00:35.800Z,30.83
2023-03-02T22:03:03.440Z,30.92
2023-03-02T22:05:30.722Z,30.55
2023-03-02T22:07:57.434Z,29.95
2023-03-02T22:10:31.393Z,29.25
2023-03-02T22:13:14.528Z,32.13
2023-03-02T22:15:41.456Z,31.15
2023-03-02T22:18:16.897Z,31.05
2023-03-02T22:20:45.557Z,30.52
2023-03-02T22:23:14.211Z,30.27
2023-03-02T22:25:43.397Z,31.08
2023-03-02T22:28:28.328Z,30.58
2023-03-02T22:30:58.892Z,31.05
2023-03-02T22:33:29.535Z,32.15
2023-03-02T22:36:13.684Z,30.05
2023-03-02T22:38:40.137Z,29.73
2023-03-02T22:41:12.981Z,32.15
2023-03-02T22:43:39.597Z,31.85
2023-03-02T22:46:21.818Z,31.92
2023-03-02T22:48:50.270Z,31.67
2023-03-02T22:51:20.594Z,30.70
2023-03-02T22:53:52.856Z,30.65
2023-03-02T22:56:37.242Z,29.50
2023-03-02T22:59:12.229Z,30.17
2023-03-02T23:01:42.120Z,31.00
2023-03-02T23:04:08.640Z,29.00
2023-03-02T23:06:45.184Z,29.90
2023-03-02T23:09:14.543Z,30.65
2023-03-02T23:11:41.821Z,31.33
2023-03-02T23:14:29.337Z,31.20
2023-03-02T23:17:08.300Z,30.17
2023-03-02T23:19:34.767Z,31.25
2023-03-02T23:22:01.231Z,31.17
2023-03-02T23:24:27.804Z,31.77
2023-03-02T23:26:54.442Z,30.58
2023-03-02T23:29:21.580Z,29.88
2023-03-02T23:31:49.056Z,30.17
2023-03-02T23:34:16.459Z,30.85
2023-03-02T23:36:43.119Z,30.08
2023-03-02T23:39:10.421Z,30.63
2023-03-02T23:41:38.546Z,30.88
2023-03-02T23:44:06.233Z,30.70
2023-03-02T23:46:33.446Z,31.58
2023-03-02T23:49:00.620Z,31.15
2023-03-02T23:51:27.216Z,30.80
2023-03-02T23:53:54.165Z,31.92
2023-03-02T23:56:21.403Z,31.42
2023-03-02T23:58:48.119Z,30.38
